Time;durP1;ratioP1;P1;durP2;ratioP2;P2;SDS_P1;SDS_P2;PMS_P1;PMS_P2;Temp;Humidity;BMP_temperature;BMP_pressure;BME280_temperature;BME280_humidity;BME280_pressure;Samples;Min_cycle;Max_cycle;Signal;HPM_P1;HPM_P2
2021/04/15 00:01:37;;;;;;;3.95;2.20;;;5.70;99.90;;;;;;4162669;28;20045;-67
2021/04/15 00:03:39;;;;;;;2.35;1.70;;;5.60;99.90;;;;;;4160287;28;20048;-67
2021/04/15 00:05:39;;;;;;;3.38;2.03;;;5.60;99.90;;;;;;4163085;28;20725;-66
2021/04/15 00:07:40;;;;;;;2.90;1.67;;;5.60;99.90;;;;;;4160809;28;20065;-67
2021/04/15 00:09:40;;;;;;;4.00;1.90;;;5.60;99.90;;;;;;4159635;28;20038;-67
2021/04/15 00:11:42;;;;;;;2.58;1.88;;;5.60;99.90;;;;;;4162099;28;20130;-67
2021/04/15 00:13:46;;;;;;;1.90;1.50;;;5.50;99.90;;;;;;4163030;28;20514;-67
2021/04/15 00:15:47;;;;;;;2.50;1.75;;;5.50;99.90;;;;;;4161296;28;20705;-67
2021/04/15 00:17:48;;;;;;;2.67;1.83;;;5.50;99.90;;;;;;4158611;28;20041;-67
2021/04/15 00:19:48;;;;;;;3.85;2.00;;;5.50;99.90;;;;;;4161775;28;20517;-67
2021/04/15 00:21:49;;;;;;;3.28;2.20;;;5.50;99.90;;;;;;4164016;28;20029;-66
2021/04/15 00:23:50;;;;;;;3.15;1.83;;;5.40;99.90;;;;;;4160984;28;20033;-67
2021/04/15 00:25:51;;;;;;;3.80;2.25;;;5.40;99.90;;;;;;4162516;28;20033;-67
2021/04/15 00:27:53;;;;;;;3.17;1.98;;;5.40;99.90;;;;;;4162772;28;20124;-66
2021/04/15 00:29:54;;;;;;;2.85;1.90;;;5.40;99.90;;;;;;4164475;28;20044;-67
2021/04/15 00:31:54;;;;;;;4.03;1.70;;;5.40;99.90;;;;;;4160786;28;20068;-67
2021/04/15 00:33:55;;;;;;;4.75;1.70;;;5.30;99.90;;;;;;4164835;28;20122;-66
2021/04/15 00:35:56;;;;;;;2.63;1.73;;;5.30;99.90;;;;;;4161490;28;20037;-67
2021/04/15 00:37:57;;;;;;;4.03;2.13;;;5.30;99.90;;;;;;4162545;28;20041;-67
2021/04/15 00:39:57;;;;;;;3.08;1.80;;;5.30;99.90;;;;;;4161665;28;20030;-67
2021/04/15 00:41:58;;;;;;;2.15;1.67;;;5.20;99.90;;;;;;4160896;28;20037;-67
2021/04/15 00:43:59;;;;;;;4.47;2.13;;;5.30;99.90;;;;;;4158590;28;20587;-67
2021/04/15 00:46:45;;;;;;;3.42;2.28;;;5.20;99.90;;;;;;4165231;28;20041;-67
2021/04/15 00:48:46;;;;;;;2.80;2.10;;;5.20;99.90;;;;;;4160071;28;20041;-67
2021/04/15 00:51:05;;;;;;;3.53;1.73;;;5.20;99.90;;;;;;4163376;28;20043;-67
2021/04/15 00:53:11;;;;;;;4.07;2.15;;;5.20;99.90;;;;;;4159831;28;20099;-67
2021/04/15 00:55:16;;;;;;;2.00;1.60;;;5.20;99.90;;;;;;4161239;28;20033;-67
2021/04/15 00:57:26;;;;;;;2.45;1.83;;;5.20;99.90;;;;;;4176662;28;20029;-66
2021/04/15 00:59:27;;;;;;;3.97;1.90;;;5.10;99.90;;;;;;4158820;28;20053;-67
2021/04/15 01:01:28;;;;;;;2.17;1.70;;;5.10;99.90;;;;;;4160857;28;20059;-67
2021/04/15 01:03:29;;;;;;;2.05;1.67;;;5.10;99.90;;;;;;4158764;28;20489;-67
2021/04/15 01:05:43;;;;;;;2.95;1.77;;;5.10;99.90;;;;;;4159122;28;20061;-67
2021/04/15 01:07:43;;;;;;;6.32;2.20;;;5.10;99.90;;;;;;4158827;28;20449;-67
2021/04/15 01:09:47;;;;;;;3.55;1.90;;;5.10;99.90;;;;;;4160154;28;20069;-67
2021/04/15 01:11:57;;;;;;;4.10;2.30;;;5.10;99.90;;;;;;4163366;28;20037;-67
2021/04/15 01:14:13;;;;;;;3.92;1.92;;;5.00;99.90;;;;;;4157306;28;20044;-67
2021/04/15 01:16:24;;;;;;;4.10;1.90;;;5.00;99.90;;;;;;4161445;28;20501;-67
2021/04/15 01:18:24;;;;;;;5.95;2.03;;;5.00;99.90;;;;;;4161319;28;20068;-67
2021/04/15 01:20:49;;;;;;;3.30;1.92;;;5.00;99.90;;;;;;4161528;28;20041;-67
2021/04/15 01:22:56;;;;;;;3.58;1.98;;;5.00;99.90;;;;;;4159816;28;20520;-67
2021/04/15 01:25:23;;;;;;;5.03;2.28;;;5.00;99.90;;;;;;4158593;28;20034;-67
2021/04/15 01:27:46;;;;;;;3.38;2.35;;;4.90;99.90;;;;;;4158863;28;20100;-67
2021/04/15 01:29:53;;;;;;;2.90;2.10;;;4.90;99.90;;;;;;4160548;28;20063;-67
2021/04/15 01:32:08;;;;;;;2.78;1.90;;;4.80;99.90;;;;;;4154938;28;20044;-67
2021/04/15 01:34:19;;;;;;;2.28;1.70;;;4.80;99.90;;;;;;4160040;28;20048;-67
2021/04/15 01:36:31;;;;;;;3.58;2.05;;;4.70;99.90;;;;;;4163951;28;20164;-66
2021/04/15 01:38:38;;;;;;;3.30;2.00;;;4.70;99.90;;;;;;4160462;28;20037;-67
2021/04/15 01:41:00;;;;;;;4.97;1.88;;;4.70;99.90;;;;;;4185949;28;20573;-67
2021/04/15 01:43:19;;;;;;;2.45;1.73;;;4.60;99.90;;;;;;4157564;28;20084;-66
2021/04/15 01:45:21;;;;;;;3.45;1.92;;;4.60;99.90;;;;;;4161390;28;20029;-67
2021/04/15 01:47:32;;;;;;;3.17;1.92;;;4.60;99.90;;;;;;4188965;28;20044;-67
2021/04/15 01:49:38;;;;;;;3.40;1.90;;;4.50;99.90;;;;;;4157138;28;20095;-67
2021/04/15 01:51:45;;;;;;;2.28;1.73;;;4.60;99.90;;;;;;4157699;28;20042;-67
2021/04/15 01:54:13;;;;;;;2.60;1.75;;;4.60;99.90;;;;;;4160414;28;20098;-67
2021/04/15 01:56:28;;;;;;;1.80;1.60;;;4.60;99.90;;;;;;4157711;28;20041;-67
2021/04/15 01:58:48;;;;;;;2.28;1.88;;;4.60;99.90;;;;;;4162197;28;20128;-67
2021/04/15 02:00:56;;;;;;;2.65;1.98;;;4.60;99.90;;;;;;4156979;28;20121;-67
2021/04/15 02:03:09;;;;;;;2.28;1.70;;;4.60;99.90;;;;;;4156976;28;20041;-67
2021/04/15 02:05:46;;;;;;;4.10;2.05;;;4.60;99.90;;;;;;4156049;28;20109;-67
2021/04/15 02:08:16;;;;;;;2.63;2.05;;;4.60;99.90;;;;;;4154856;28;20065;-67
2021/04/15 02:10:18;;;;;;;3.00;1.92;;;4.50;99.90;;;;;;4154204;28;20049;-67
2021/04/15 02:12:27;;;;;;;3.08;2.35;;;4.50;99.90;;;;;;4158169;28;20033;-67
2021/04/15 02:14:34;;;;;;;5.85;2.78;;;4.40;99.90;;;;;;4157390;28;20045;-67
2021/04/15 02:16:38;;;;;;;2.88;1.98;;;4.50;99.90;;;;;;4155265;28;20656;-67
2021/04/15 02:18:42;;;;;;;3.00;2.30;;;4.40;99.90;;;;;;4158120;28;20041;-67
2021/04/15 02:20:49;;;;;;;3.83;2.60;;;4.40;99.90;;;;;;4183753;28;20044;-67
2021/04/15 02:23:00;;;;;;;3.38;2.30;;;4.30;99.90;;;;;;4156322;28;20048;-67
2021/04/15 02:25:04;;;;;;;4.07;2.70;;;4.30;99.90;;;;;;4153317;28;20053;-67
2021/04/15 02:27:20;;;;;;;5.43;2.88;;;4.20;99.90;;;;;;4155810;28;20096;-67
2021/04/15 02:29:23;;;;;;;6.53;3.03;;;4.20;99.90;;;;;;4157123;28;20045;-67
2021/04/15 02:31:28;;;;;;;5.38;2.70;;;4.20;99.90;;;;;;4172907;28;20041;-67
2021/04/15 02:33:42;;;;;;;3.67;2.25;;;4.20;99.90;;;;;;4156146;28;20041;-67
2021/04/15 02:35:52;;;;;;;2.97;2.20;;;4.20;99.90;;;;;;4157086;28;20048;-67
2021/04/15 02:37:58;;;;;;;2.88;2.30;;;4.20;99.90;;;;;;4155627;28;20081;-67
2021/04/15 02:40:05;;;;;;;6.38;2.70;;;4.20;99.90;;;;;;4157425;28;20045;-67
2021/04/15 02:42:11;;;;;;;3.10;2.05;;;4.20;99.90;;;;;;4157568;28;20037;-67
2021/04/15 02:44:22;;;;;;;2.67;2.17;;;4.20;99.90;;;;;;4156058;28;20069;-67
2021/04/15 02:46:35;;;;;;;3.05;2.10;;;4.30;99.90;;;;;;4156001;28;20128;-68
2021/04/15 02:48:38;;;;;;;4.60;2.95;;;4.30;99.90;;;;;;4156450;28;20033;-67
2021/04/15 02:50:40;;;;;;;3.35;2.35;;;4.30;99.90;;;;;;4155463;28;20042;-67
2021/04/15 02:52:44;;;;;;;5.28;2.65;;;4.30;99.90;;;;;;4154728;28;20037;-68
2021/04/15 02:54:53;;;;;;;6.05;3.17;;;4.30;99.90;;;;;;4157961;28;20369;-67
2021/04/15 02:56:59;;;;;;;7.30;3.88;;;4.30;99.90;;;;;;4184125;28;20066;-67
2021/04/15 02:59:00;;;;;;;6.60;3.60;;;4.30;99.90;;;;;;4157913;28;20149;-67
2021/04/15 03:01:03;;;;;;;9.45;3.60;;;4.30;99.90;;;;;;4156532;28;20064;-67
2021/04/15 03:03:11;;;;;;;5.18;3.08;;;4.20;99.90;;;;;;4157041;28;20064;-67
2021/04/15 03:05:17;;;;;;;5.40;3.08;;;4.20;99.90;;;;;;4154628;28;20046;-67
2021/04/15 03:07:21;;;;;;;6.25;2.80;;;4.20;99.90;;;;;;4157024;28;20513;-68
2021/04/15 03:09:24;;;;;;;4.97;3.00;;;4.20;99.90;;;;;;4157454;28;20033;-67
2021/04/15 03:11:50;;;;;;;5.22;2.72;;;4.20;99.90;;;;;;4156747;28;20416;-67
2021/04/15 03:13:56;;;;;;;3.92;2.58;;;4.10;99.90;;;;;;4152238;28;20040;-67
2021/04/15 03:16:04;;;;;;;3.58;2.65;;;4.00;99.90;;;;;;4156748;28;20064;-67
2021/04/15 03:18:11;;;;;;;5.15;2.35;;;3.90;99.90;;;;;;4157112;28;20278;-67
2021/04/15 03:20:16;;;;;;;5.82;2.75;;;3.90;99.90;;;;;;4178068;28;20420;-67
2021/04/15 03:22:25;;;;;;;5.35;3.00;;;3.90;99.90;;;;;;4156878;28;20072;-67
2021/04/15 03:24:41;;;;;;;4.95;3.47;;;3.90;99.90;;;;;;4175797;28;20041;-67
2021/04/15 03:26:51;;;;;;;4.53;3.08;;;3.90;99.90;;;;;;4158534;28;20092;-67
2021/04/15 03:29:04;;;;;;;5.38;2.67;;;3.80;99.90;;;;;;4160039;28;20175;-67
2021/04/15 03:31:15;;;;;;;3.78;2.50;;;3.90;99.90;;;;;;4156648;28;20041;-68
2021/04/15 03:33:27;;;;;;;3.83;2.55;;;3.90;99.90;;;;;;4161081;28;20044;-67
2021/04/15 03:35:39;;;;;;;4.25;2.72;;;3.90;99.90;;;;;;4156892;28;20120;-67
2021/04/15 03:37:54;;;;;;;7.40;2.72;;;3.90;99.90;;;;;;4161958;28;20034;-67
2021/04/15 03:39:57;;;;;;;3.10;2.30;;;3.90;99.90;;;;;;4162657;28;20033;-67
2021/04/15 03:42:04;;;;;;;5.50;2.70;;;4.00;99.90;;;;;;4160826;28;20026;-67
2021/04/15 03:44:21;;;;;;;4.93;3.00;;;4.00;99.90;;;;;;4161371;28;20049;-67
2021/04/15 03:46:28;;;;;;;4.03;2.50;;;3.90;99.90;;;;;;4159705;28;20030;-67
2021/04/15 03:48:34;;;;;;;3.45;2.65;;;3.90;99.90;;;;;;4160442;28;20613;-67
2021/04/15 03:50:50;;;;;;;3.70;2.63;;;3.90;99.90;;;;;;4162599;28;20042;-67
2021/04/15 03:52:51;;;;;;;5.38;2.92;;;3.90;99.90;;;;;;4181391;28;20757;-68
2021/04/15 03:54:58;;;;;;;4.15;2.80;;;3.90;99.90;;;;;;4177859;28;20079;-67
2021/04/15 03:57:01;;;;;;;4.55;2.95;;;3.80;99.90;;;;;;4159519;28;20057;-68
2021/04/15 03:59:22;;;;;;;6.43;3.10;;;3.80;99.90;;;;;;4158127;28;20033;-68
2021/04/15 04:01:30;;;;;;;3.53;2.70;;;3.80;99.90;;;;;;4163095;28;20046;-68
2021/04/15 04:03:34;;;;;;;4.70;2.60;;;3.80;99.90;;;;;;4159361;28;20390;-67
2021/04/15 04:05:40;;;;;;;3.75;2.60;;;3.80;99.90;;;;;;4161954;28;20056;-67
2021/04/15 04:07:52;;;;;;;5.45;3.08;;;3.80;99.90;;;;;;4177402;28;20560;-68
2021/04/15 04:10:03;;;;;;;4.50;3.25;;;3.90;99.90;;;;;;4155553;28;20033;-67
2021/04/15 04:12:06;;;;;;;5.43;3.40;;;3.90;99.90;;;;;;4162666;28;20069;-67
2021/04/15 04:14:17;;;;;;;3.28;2.83;;;3.80;99.90;;;;;;4165064;28;20033;-68
2021/04/15 04:16:37;;;;;;;4.68;3.00;;;3.80;99.90;;;;;;4162322;28;20025;-68
2021/04/15 04:18:49;;;;;;;4.43;2.90;;;3.80;99.90;;;;;;4161290;28;20049;-67
2021/04/15 04:21:00;;;;;;;5.40;3.07;;;3.90;99.90;;;;;;4160268;28;20033;-67
2021/04/15 04:23:29;;;;;;;3.67;2.50;;;3.90;99.90;;;;;;4161691;28;20045;-67
2021/04/15 04:25:47;;;;;;;5.80;2.72;;;3.90;99.90;;;;;;4159378;28;20096;-67
2021/04/15 04:27:56;;;;;;;4.03;2.67;;;4.00;99.90;;;;;;4182843;28;20567;-67
2021/04/15 04:30:17;;;;;;;4.43;2.67;;;4.00;99.90;;;;;;4191451;28;20182;-68
2021/04/15 04:32:21;;;;;;;4.05;2.65;;;4.00;99.90;;;;;;4159581;28;20059;-67
2021/04/15 04:34:23;;;;;;;3.75;2.42;;;4.00;99.90;;;;;;4173907;28;20033;-68
2021/04/15 04:36:27;;;;;;;3.80;2.47;;;4.10;99.90;;;;;;4163467;28;20081;-67
2021/04/15 04:38:28;;;;;;;5.22;2.67;;;4.10;99.90;;;;;;4159499;28;20064;-68
2021/04/15 04:40:35;;;;;;;4.80;2.97;;;4.10;99.90;;;;;;4178547;28;20048;-67
2021/04/15 04:42:45;;;;;;;3.47;2.75;;;4.10;99.90;;;;;;4162188;28;20428;-67
2021/04/15 04:44:53;;;;;;;3.67;2.67;;;4.10;99.90;;;;;;4161204;28;20590;-67
2021/04/15 04:47:23;;;;;;;4.10;2.55;;;4.20;99.90;;;;;;4189358;28;20074;-67
2021/04/15 04:49:45;;;;;;;5.05;3.00;;;4.20;99.90;;;;;;4158086;28;20041;-67
2021/04/15 04:52:03;;;;;;;4.45;2.72;;;4.20;99.90;;;;;;4160159;28;20152;-67
2021/04/15 04:54:04;;;;;;;3.20;2.20;;;4.20;99.90;;;;;;4160349;28;20029;-67
2021/04/15 04:56:08;;;;;;;3.97;2.75;;;4.20;99.90;;;;;;4164458;28;20465;-68
2021/04/15 04:58:11;;;;;;;4.43;2.78;;;4.20;99.90;;;;;;4159288;28;20405;-67
2021/04/15 05:00:17;;;;;;;3.45;2.67;;;4.20;99.90;;;;;;4159245;28;20042;-68
2021/04/15 05:02:17;;;;;;;4.03;2.70;;;4.30;99.90;;;;;;4162370;28;20050;-67
2021/04/15 05:04:22;;;;;;;3.63;2.72;;;4.30;99.90;;;;;;4162112;28;20701;-67
2021/04/15 05:06:26;;;;;;;4.13;2.88;;;4.30;99.90;;;;;;4162596;28;20041;-67
2021/04/15 05:08:30;;;;;;;4.10;2.63;;;4.30;99.90;;;;;;4159236;28;20044;-67
2021/04/15 05:10:32;;;;;;;5.20;3.13;;;4.30;99.90;;;;;;4162619;28;20073;-67
2021/04/15 05:12:35;;;;;;;4.22;2.88;;;4.40;99.90;;;;;;4163462;28;20057;-67
2021/04/15 05:14:36;;;;;;;3.90;2.63;;;4.40;99.90;;;;;;4159556;28;20037;-67
2021/04/15 05:16:43;;;;;;;4.13;2.80;;;4.40;99.90;;;;;;4161751;28;21689;-67
2021/04/15 05:18:44;;;;;;;4.03;2.50;;;4.40;99.90;;;;;;4162609;28;20125;-67
2021/04/15 05:20:45;;;;;;;4.68;2.78;;;4.50;99.90;;;;;;4159164;28;20385;-67
2021/04/15 05:22:48;;;;;;;4.32;2.72;;;4.50;99.90;;;;;;4150167;28;20048;-67
2021/04/15 05:25:00;;;;;;;3.35;2.42;;;4.50;99.90;;;;;;4161350;28;20059;-67
2021/04/15 05:27:03;;;;;;;5.13;2.80;;;4.50;99.90;;;;;;4161333;28;20025;-67
2021/04/15 05:29:07;;;;;;;6.38;2.97;;;4.60;99.90;;;;;;4159177;28;20048;-67
2021/04/15 05:31:12;;;;;;;5.63;2.90;;;4.60;99.90;;;;;;4158646;28;20037;-67
2021/04/15 05:33:18;;;;;;;4.25;2.67;;;4.60;99.90;;;;;;4159327;28;20025;-68
2021/04/15 05:35:27;;;;;;;3.95;2.83;;;4.60;99.90;;;;;;4158274;28;20034;-67
2021/04/15 05:37:29;;;;;;;4.50;2.80;;;4.70;99.90;;;;;;4157811;28;20137;-67
2021/04/15 05:39:30;;;;;;;6.43;2.70;;;4.70;99.90;;;;;;4158155;28;20540;-68
2021/04/15 05:41:36;;;;;;;5.78;2.83;;;4.80;99.90;;;;;;4159640;28;20022;-68
2021/04/15 05:43:48;;;;;;;4.85;2.90;;;4.80;99.90;;;;;;4158459;28;20021;-68
2021/04/15 05:45:56;;;;;;;4.25;3.13;;;4.80;99.90;;;;;;4157845;28;20029;-68
2021/04/15 05:48:04;;;;;;;5.03;2.60;;;4.90;99.90;;;;;;4157942;28;20033;-68
2021/04/15 05:50:14;;;;;;;7.53;3.05;;;4.90;99.90;;;;;;4181757;28;20090;-68
2021/04/15 05:52:28;;;;;;;4.75;3.03;;;4.90;99.90;;;;;;4158016;28;20037;-68
2021/04/15 05:54:32;;;;;;;6.80;2.45;;;4.90;99.90;;;;;;4159985;28;20030;-67
2021/04/15 05:56:38;;;;;;;6.10;3.08;;;4.90;99.90;;;;;;4160953;28;20033;-68
2021/04/15 05:58:59;;;;;;;3.53;2.65;;;5.00;99.90;;;;;;4160354;28;20451;-67
2021/04/15 06:01:03;;;;;;;6.15;3.13;;;5.00;99.90;;;;;;4146782;28;20055;-67
2021/04/15 06:03:24;;;;;;;4.10;3.00;;;5.10;99.90;;;;;;4158698;28;20025;-67
2021/04/15 06:05:27;;;;;;;7.32;3.25;;;5.10;99.90;;;;;;4181368;28;20067;-68
2021/04/15 06:07:28;;;;;;;5.93;3.25;;;5.10;99.90;;;;;;4159097;28;20088;-67
2021/04/15 06:09:29;;;;;;;5.80;3.30;;;5.20;99.90;;;;;;4158475;28;20492;-67
2021/04/15 06:11:58;;;;;;;5.10;3.08;;;5.20;99.90;;;;;;4160564;28;20042;-67
2021/04/15 06:14:24;;;;;;;5.88;3.15;;;5.30;99.90;;;;;;4156826;28;20784;-67
2021/04/15 06:16:33;;;;;;;5.32;3.15;;;5.30;99.90;;;;;;4158775;28;20214;-68
2021/04/15 06:19:05;;;;;;;5.35;2.65;;;5.30;99.90;;;;;;4173504;28;20044;-68
2021/04/15 06:21:14;;;;;;;5.55;2.60;;;5.30;99.90;;;;;;4153536;28;20969;-68
2021/04/15 06:23:45;;;;;;;9.57;3.67;;;5.40;99.90;;;;;;4160529;28;20064;-67
2021/04/15 06:25:48;;;;;;;5.32;2.97;;;5.40;99.90;;;;;;4170613;28;20133;-67
2021/04/15 06:27:50;;;;;;;6.00;3.05;;;5.50;99.90;;;;;;4158786;28;20033;-68
2021/04/15 06:30:22;;;;;;;4.72;2.88;;;5.50;99.90;;;;;;4158410;28;20025;-68
2021/04/15 06:32:45;;;;;;;7.60;3.38;;;5.50;99.90;;;;;;4173300;28;20428;-67
2021/04/15 06:34:46;;;;;;;6.28;3.15;;;5.50;99.90;;;;;;4174918;28;20043;-68
2021/04/15 06:36:59;;;;;;;6.50;3.20;;;5.50;99.90;;;;;;4159036;28;20514;-68
2021/04/15 06:39:16;;;;;;;4.35;3.08;;;5.50;99.90;;;;;;4160545;28;20373;-68
2021/04/15 06:41:36;;;;;;;3.75;2.88;;;5.50;99.90;;;;;;4154892;28;20109;-68
2021/04/15 06:44:21;;;;;;;6.15;3.15;;;5.50;99.90;;;;;;4159117;28;20038;-67
2021/04/15 06:46:40;;;;;;;4.35;2.97;;;5.50;99.90;;;;;;4156457;28;20079;-68
2021/04/15 06:49:05;;;;;;;5.40;3.35;;;5.50;99.90;;;;;;4160147;28;20029;-69
2021/04/15 06:51:46;;;;;;;9.35;3.60;;;5.60;99.90;;;;;;4176750;28;20088;-67
2021/04/15 06:54:21;;;;;;;7.82;3.83;;;5.70;99.90;;;;;;4158043;28;20029;-67
2021/04/15 06:56:24;;;;;;;6.03;3.80;;;5.70;99.90;;;;;;4162116;28;20030;-67
2021/04/15 06:58:35;;;;;;;5.80;3.35;;;5.70;99.90;;;;;;4159866;28;20072;-67
2021/04/15 07:01:00;;;;;;;7.55;3.22;;;5.70;99.90;;;;;;4157979;28;20437;-68
2021/04/15 07:03:30;;;;;;;9.60;3.65;;;5.80;99.90;;;;;;4157461;28;20053;-67
2021/04/15 07:06:06;;;;;;;4.72;3.30;;;5.70;99.90;;;;;;4156563;28;20033;-67
2021/04/15 07:08:10;;;;;;;6.65;3.50;;;5.80;99.90;;;;;;4133091;28;20048;-67
2021/04/15 07:10:21;;;;;;;6.65;3.83;;;5.80;99.90;;;;;;4159476;28;20525;-67
2021/04/15 07:12:46;;;;;;;6.70;3.83;;;5.80;99.90;;;;;;4159752;28;20043;-67
2021/04/15 07:14:56;;;;;;;7.25;3.75;;;5.90;99.90;;;;;;4179369;28;20032;-67
2021/04/15 07:17:05;;;;;;;7.28;4.13;;;6.00;99.90;;;;;;4160730;28;20037;-67
2021/04/15 07:19:15;;;;;;;10.13;4.63;;;6.10;99.90;;;;;;4164322;28;20037;-67
2021/04/15 07:21:39;;;;;;;9.93;5.50;;;6.10;99.90;;;;;;4163836;28;20034;-67
2021/04/15 07:24:11;;;;;;;6.85;4.07;;;6.00;99.90;;;;;;4155266;28;20080;-67
2021/04/15 07:26:46;;;;;;;10.38;4.60;;;6.00;99.90;;;;;;4185860;28;20089;-67
2021/04/15 07:29:17;;;;;;;7.72;4.15;;;6.10;99.90;;;;;;4164739;28;20115;-67
2021/04/15 07:31:42;;;;;;;6.47;4.30;;;6.20;99.90;;;;;;4173990;28;20091;-67
2021/04/15 07:34:13;;;;;;;7.78;3.90;;;6.30;99.90;;;;;;4140695;28;20077;-67
2021/04/15 07:36:43;;;;;;;6.63;4.38;;;6.30;99.90;;;;;;4160892;28;20025;-67
2021/04/15 07:39:07;;;;;;;8.00;4.55;;;6.20;99.90;;;;;;4160718;28;20086;-67
2021/04/15 07:41:36;;;;;;;9.75;4.30;;;6.20;99.90;;;;;;4184331;28;20044;-67
2021/04/15 07:43:55;;;;;;;8.73;4.10;;;6.30;99.90;;;;;;4159721;28;20537;-67
2021/04/15 07:46:26;;;;;;;8.82;4.55;;;6.30;99.90;;;;;;4165307;28;20049;-67
2021/04/15 07:48:38;;;;;;;7.55;4.00;;;6.20;99.90;;;;;;4156954;28;20270;-67
2021/04/15 07:50:58;;;;;;;7.30;3.70;;;6.30;99.90;;;;;;4162789;28;20072;-67
2021/04/15 07:53:11;;;;;;;7.22;3.25;;;6.40;99.90;;;;;;4162052;28;20037;-67
2021/04/15 07:55:32;;;;;;;5.43;2.97;;;6.50;99.90;;;;;;4159853;28;20087;-67
2021/04/15 07:57:49;;;;;;;7.53;3.45;;;6.60;99.90;;;;;;4156710;28;20363;-67
2021/04/15 08:00:08;;;;;;;5.82;3.05;;;6.60;99.90;;;;;;4158378;28;20033;-67
2021/04/15 08:02:45;;;;;;;7.32;3.00;;;6.70;99.90;;;;;;4184361;28;20741;-67
2021/04/15 08:05:10;;;;;;;3.97;2.67;;;6.80;99.90;;;;;;4160782;28;20045;-67
2021/04/15 08:07:48;;;;;;;7.50;2.35;;;6.90;99.90;;;;;;4163413;28;20046;-67
2021/04/15 08:10:24;;;;;;;6.95;3.10;;;7.00;99.90;;;;;;4158687;28;20049;-67
2021/04/15 08:13:03;;;;;;;3.78;2.47;;;7.20;99.90;;;;;;4160351;28;20615;-67
2021/04/15 08:15:31;;;;;;;3.60;2.35;;;7.30;99.90;;;;;;4157891;28;20040;-67
2021/04/15 08:17:52;;;;;;;5.05;2.63;;;7.30;99.90;;;;;;4156742;28;20045;-67
2021/04/15 08:20:13;;;;;;;4.60;2.50;;;7.40;99.90;;;;;;4156693;28;20049;-67
2021/04/15 08:22:48;;;;;;;4.15;1.98;;;7.30;99.90;;;;;;4161821;28;20396;-67
2021/04/15 08:24:52;;;;;;;6.00;2.90;;;7.40;99.90;;;;;;4180779;28;20049;-67
2021/04/15 08:27:17;;;;;;;7.22;2.38;;;7.20;99.90;;;;;;4162296;28;20061;-67
2021/04/15 08:29:39;;;;;;;13.88;2.88;;;7.10;99.90;;;;;;4159509;28;20072;-67
2021/04/15 08:32:07;;;;;;;5.82;2.78;;;7.00;99.90;;;;;;4153022;28;20433;-67
2021/04/15 08:34:18;;;;;;;6.15;2.70;;;7.10;99.90;;;;;;4187370;28;20044;-67
2021/04/15 08:36:38;;;;;;;3.88;2.30;;;7.10;99.90;;;;;;4156974;28;20750;-67
2021/04/15 08:39:01;;;;;;;4.55;2.55;;;7.30;99.90;;;;;;4150581;28;20080;-67
2021/04/15 08:41:26;;;;;;;4.28;2.42;;;7.30;99.90;;;;;;4148451;28;20489;-67
2021/04/15 08:43:52;;;;;;;7.18;2.60;;;7.30;99.90;;;;;;4156369;28;20386;-67
2021/04/15 08:46:17;;;;;;;4.03;2.55;;;7.20;99.90;;;;;;4155989;28;20042;-67
2021/04/15 08:48:21;;;;;;;7.50;2.97;;;7.20;99.90;;;;;;4137597;28;20081;-67
2021/04/15 08:50:49;;;;;;;5.13;2.80;;;7.10;99.90;;;;;;4155302;28;20117;-67
2021/04/15 08:53:27;;;;;;;4.65;2.28;;;7.20;99.90;;;;;;4180531;28;20610;-67
2021/04/15 08:55:39;;;;;;;5.25;2.10;;;7.20;99.90;;;;;;4156114;28;20070;-67
2021/04/15 08:58:00;;;;;;;5.00;2.17;;;7.20;99.90;;;;;;4182499;28;20420;-67
2021/04/15 09:00:44;;;;;;;3.58;2.25;;;7.20;99.90;;;;;;4154326;28;20088;-67
2021/04/15 09:03:03;;;;;;;;;;;7.20;99.90;;;;;;4166868;28;20048;-67
2021/04/15 09:05:30;;;;;;;4.75;2.45;;;7.20;99.90;;;;;;4154833;28;20361;-67
2021/04/15 09:08:15;;;;;;;6.88;2.88;;;7.20;99.90;;;;;;4155537;28;20371;-67
2021/04/15 09:10:49;;;;;;;5.53;2.42;;;7.30;99.90;;;;;;4134071;28;20457;-67
2021/04/15 09:13:14;;;;;;;4.15;2.70;;;7.40;99.90;;;;;;4153937;28;20045;-67
2021/04/15 09:15:18;;;;;;;5.95;2.60;;;7.50;99.90;;;;;;4153970;28;20033;-67
2021/04/15 09:17:52;;;;;;;5.85;2.63;;;7.40;99.90;;;;;;4155586;28;20025;-67
2021/04/15 09:20:14;;;;;;;4.22;2.30;;;7.50;99.90;;;;;;4149586;28;20183;-67
2021/04/15 09:22:39;;;;;;;6.28;2.60;;;7.70;99.90;;;;;;4153991;28;20025;-67
2021/04/15 09:25:05;;;;;;;4.05;2.55;;;7.90;99.90;;;;;;4155678;28;20271;-67
2021/04/15 09:27:09;;;;;;;4.15;2.20;;;8.20;99.90;;;;;;4153962;28;20065;-67
2021/04/15 09:29:20;;;;;;;3.60;2.28;;;8.30;99.90;;;;;;4183748;28;20051;-67
2021/04/15 09:31:29;;;;;;;6.05;2.50;;;8.30;99.90;;;;;;4179828;28;20029;-67
2021/04/15 09:33:32;;;;;;;3.70;1.90;;;8.40;99.90;;;;;;4153418;28;20078;-67
2021/04/15 09:36:04;;;;;;;3.83;1.80;;;8.50;99.90;;;;;;4153311;28;20041;-67
2021/04/15 09:38:19;;;;;;;5.00;2.28;;;8.80;99.90;;;;;;4154507;28;20328;-67
2021/04/15 09:40:42;;;;;;;5.15;1.90;;;8.80;99.90;;;;;;4154816;28;20523;-67
2021/04/15 09:42:57;;;;;;;2.13;1.73;;;8.90;99.90;;;;;;4183267;28;20048;-67
2021/04/15 09:45:13;;;;;;;3.60;1.63;;;8.90;99.90;;;;;;4152760;28;20021;-67
2021/04/15 09:47:43;;;;;;;5.00;1.60;;;8.90;99.90;;;;;;4169937;28;20028;-67
2021/04/15 09:49:50;;;;;;;3.95;1.63;;;9.00;99.90;;;;;;4154524;28;20047;-67
2021/04/15 09:52:03;;;;;;;4.15;1.60;;;9.10;99.90;;;;;;4153989;28;20114;-67
2021/04/15 09:54:28;;;;;;;2.03;1.50;;;9.20;99.90;;;;;;4155144;28;20029;-67
2021/04/15 09:56:39;;;;;;;3.38;1.75;;;9.40;99.90;;;;;;4151077;28;20127;-67
2021/04/15 09:59:01;;;;;;;4.65;2.00;;;9.50;99.90;;;;;;4155623;28;20037;-67
2021/04/15 10:01:07;;;;;;;3.20;1.65;;;9.50;99.90;;;;;;4154079;28;20043;-67
2021/04/15 10:03:26;;;;;;;4.15;1.70;;;9.50;99.90;;;;;;4154952;28;20040;-67
2021/04/15 10:05:50;;;;;;;2.17;1.50;;;9.30;99.90;;;;;;4174088;28;20116;-67
2021/04/15 10:07:55;;;;;;;2.88;1.50;;;9.30;99.90;;;;;;4166326;28;20033;-67
2021/04/15 10:10:11;;;;;;;3.63;1.80;;;9.50;99.90;;;;;;4153298;28;20565;-67
2021/04/15 10:12:37;;;;;;;5.45;2.03;;;9.60;99.90;;;;;;4152004;28;20068;-67
2021/04/15 10:15:03;;;;;;;4.13;1.90;;;9.70;99.90;;;;;;4155406;28;20028;-67
2021/04/15 10:17:18;;;;;;;5.00;2.13;;;9.90;99.90;;;;;;4133998;28;20100;-67
2021/04/15 10:19:40;;;;;;;4.22;1.98;;;9.90;99.90;;;;;;4184540;28;20044;-67
2021/04/15 10:22:07;;;;;;;2.67;1.75;;;10.00;99.90;;;;;;4180137;28;20518;-67
2021/04/15 10:24:26;;;;;;;5.88;2.00;;;10.00;99.90;;;;;;4154529;28;20045;-67
2021/04/15 10:26:27;;;;;;;3.42;1.90;;;10.10;99.90;;;;;;4154418;28;20084;-67
2021/04/15 10:28:58;;;;;;;3.65;1.60;;;10.10;99.90;;;;;;4154476;28;20029;-67
2021/04/15 10:31:09;;;;;;;3.50;1.98;;;10.00;99.90;;;;;;4154639;28;20037;-67
2021/04/15 10:33:15;;;;;;;3.17;1.80;;;9.90;99.90;;;;;;4154206;28;20033;-67
2021/04/15 10:35:28;;;;;;;5.07;1.83;;;9.70;99.90;;;;;;4154402;28;20091;-67
2021/04/15 10:37:46;;;;;;;2.88;1.90;;;9.80;99.90;;;;;;4153842;28;20091;-67
2021/04/15 10:40:03;;;;;;;3.83;1.90;;;9.80;99.90;;;;;;4154351;28;20037;-67
2021/04/15 10:42:19;;;;;;;4.07;1.90;;;9.90;99.90;;;;;;4152098;28;20057;-67
2021/04/15 10:44:46;;;;;;;4.18;1.73;;;9.90;99.90;;;;;;4154400;28;20052;-67
2021/04/15 10:47:05;;;;;;;4.88;1.80;;;9.90;99.90;;;;;;4152300;28;21192;-67
2021/04/15 10:49:15;;;;;;;4.22;2.00;;;9.90;99.90;;;;;;4151537;28;20124;-67
2021/04/15 10:51:33;;;;;;;2.78;1.80;;;10.00;99.90;;;;;;4154509;28;20045;-67
2021/04/15 10:53:56;;;;;;;7.43;2.88;;;10.10;99.90;;;;;;4150166;28;20033;-67
2021/04/15 10:56:13;;;;;;;5.88;2.35;;;9.90;99.90;;;;;;4167470;28;20325;-67
2021/04/15 10:58:30;;;;;;;6.93;2.10;;;10.00;99.90;;;;;;4153627;28;20028;-67
2021/04/15 11:00:33;;;;;;;4.65;2.60;;;9.70;99.90;;;;;;4151882;28;20040;-67
2021/04/15 11:02:46;;;;;;;;;;;9.50;98.20;;;;;;4154385;28;20437;-67
2021/04/15 11:04:48;;;;;;;4.25;1.92;;;9.60;99.90;;;;;;4152646;28;20625;-67
2021/04/15 11:06:55;;;;;;;2.83;1.60;;;9.60;99.90;;;;;;4154179;28;20033;-67
2021/04/15 11:08:56;;;;;;;4.70;1.70;;;9.70;99.90;;;;;;4153378;28;20030;-67
2021/04/15 11:11:18;;;;;;;3.58;1.58;;;9.80;99.90;;;;;;4153676;28;20048;-67
2021/04/15 11:13:18;;;;;;;3.42;1.40;;;9.70;97.60;;;;;;4154216;28;20103;-67
2021/04/15 11:15:35;;;;;;;3.20;1.40;;;9.60;96.60;;;;;;4152972;28;20630;-67
2021/04/15 11:17:42;;;;;;;1.77;1.05;;;9.60;99.70;;;;;;4153174;28;20033;-67
2021/04/15 11:19:44;;;;;;;2.60;1.63;;;9.60;94.90;;;;;;4154879;28;20440;-67
2021/04/15 11:21:45;;;;;;;2.55;1.10;;;9.70;99.20;;;;;;4182675;28;20029;-67
2021/04/15 11:23:47;;;;;;;2.70;1.60;;;9.80;99.90;;;;;;4151667;28;20044;-67
2021/04/15 11:25:51;;;;;;;4.03;1.88;;;10.10;99.90;;;;;;4155814;28;20033;-67
2021/04/15 11:27:53;;;;;;;8.02;2.08;;;10.30;99.90;;;;;;4156075;28;20033;-66
2021/04/15 11:29:54;;;;;;;3.78;2.03;;;10.50;99.90;;;;;;4156241;28;20033;-67
2021/04/15 11:31:56;;;;;;;4.05;1.67;;;10.60;99.90;;;;;;4156249;28;20454;-67
2021/04/15 11:34:06;;;;;;;3.10;1.58;;;10.80;99.90;;;;;;4156423;28;20022;-67
2021/04/15 11:36:31;;;;;;;4.32;1.95;;;10.90;99.90;;;;;;4155686;28;20116;-67
2021/04/15 11:38:32;;;;;;;5.00;1.92;;;10.90;98.00;;;;;;4155903;28;20032;-67
2021/04/15 11:40:39;;;;;;;1.40;1.23;;;10.80;91.70;;;;;;4156045;28;20033;-67
2021/04/15 11:42:41;;;;;;;2.67;1.35;;;10.90;94.00;;;;;;4153550;28;20025;-68